Hlavní strana
METAR-TAF:

METAR-TAF

Letiště :

Rabat, Maroko

zeměpisná šířka: 34-03N, zeměpisná délka: 006-46W, výška: 84 m

Aktuální stav počasí

Zpráva byla vytvořena před 16 minutami, v 08:00 UTC
Jihojihozápadní vítr 11 kt
Teplota 13°C
Vlhkost vzduchu 77%
Tlak 1018 hPa
Viditelnost: 5000 m
Oblačno až skoro zataženo ve výšce 1600 ft

METAR: GMME 180800Z 20011KT 5000 BKN016 13/09 Q1018 RERA NOSIG

Čas: 09:16 (08:16 UTC)

Předpověď počasí

Zpráva byla vytvořena před 3 hodinami a 16 minutami, v 05:00 UTC
Předpověď platná od 18 v 06 UTC do 19 v 12 UTC
Jižní vítr 10 kt
Viditelnost: 8000 m
Oblačno až skoro zataženo ve výšce 1600 ft
Změna
od 18 v 06 UTC do 18 v 08 UTC
Severoseverozápadní vítr 12 kt
Dočasný
od 18 v 08 UTC do 18 v 16 UTC
Viditelnost: 3000 m
Polojasno ve výšce 1300 ft, Vertikální cumulus.
dešťové přeháňky
Změna
od 18 v 18 UTC do 18 v 20 UTC
Jihovýchodní vítr 6 kt

TAF: GMME 180500Z 1806/1912 18010KT 8000 BKN016 BECMG 1806/1808 34012KT TEMPO 1808/1816 3000 SHRA SCT013TCU BECMG 1818/1820 14006KT

Stav a předpovědi počasí z více než 4 000 letišť (zprávy METAR a TAF).

Červené a žluté tečky na mapě představují dostupné meteorologické stanice.

Když kurzor umístíte na tečku, zobrazí se název stanice.

Pak kliknutím zobrazíte stav a předpověď počasí.

Chcete-li změnit mapu, kliknutím na zelené tlačítko se znaménkem +mapu přiblížíte, kliknutím na zelené tlačítko se znaménkem – mapu oddálíte a kliknutím na zelené šipky přejdete na sousední mapy.


METAR-TAF: